createdAt,value
2023-12-13T00:00:14.618Z,1176.00
2023-12-13T00:01:14.693Z,1179.00
2023-12-13T00:02:14.850Z,1181.00
2023-12-13T00:03:14.783Z,1180.00
2023-12-13T00:04:14.821Z,1179.00
2023-12-13T00:05:14.832Z,1181.00
2023-12-13T00:06:14.882Z,1180.00
2023-12-13T00:07:14.958Z,1180.00
2023-12-13T00:08:14.958Z,1177.00
2023-12-13T00:09:15.000Z,1179.00
2023-12-13T00:10:15.079Z,1177.00
2023-12-13T00:11:15.112Z,1179.00
2023-12-13T00:12:15.168Z,1183.00
2023-12-13T00:13:15.234Z,1184.00
2023-12-13T00:14:15.224Z,1184.00
2023-12-13T00:15:15.277Z,1182.00
2023-12-13T00:16:15.357Z,1181.00
2023-12-13T00:17:15.366Z,1181.00
2023-12-13T00:18:15.531Z,1179.00
2023-12-13T00:19:15.626Z,1181.00
2023-12-13T00:20:15.552Z,1178.00
2023-12-13T00:21:15.619Z,1175.00
2023-12-13T00:22:15.703Z,1171.00
2023-12-13T00:23:15.733Z,1169.00
2023-12-13T00:24:15.787Z,1168.00
2023-12-13T00:25:15.929Z,1168.00
2023-12-13T00:26:15.903Z,1171.00
2023-12-13T00:27:15.969Z,1171.00
2023-12-13T00:28:16.597Z,1173.00
2023-12-13T00:29:16.163Z,1174.00
2023-12-13T00:30:16.214Z,1172.00
2023-12-13T00:31:16.234Z,1170.00
2023-12-13T00:32:16.270Z,1171.00
2023-12-13T00:33:16.495Z,1174.00
2023-12-13T00:34:16.429Z,1175.00
2023-12-13T00:35:16.473Z,1176.00
2023-12-13T00:36:16.531Z,1177.00
2023-12-13T00:37:16.754Z,1176.00
2023-12-13T00:38:16.652Z,1176.00
2023-12-13T00:39:16.708Z,1177.00
2023-12-13T00:40:16.954Z,1179.00
2023-12-13T00:41:16.833Z,1175.00
2023-12-13T00:42:16.900Z,1178.00
2023-12-13T00:43:16.987Z,1178.00
2023-12-13T00:44:17.022Z,1178.00
2023-12-13T00:45:17.080Z,1169.00
2023-12-13T00:46:17.206Z,1172.00
2023-12-13T00:47:17.282Z,1174.00
2023-12-13T00:48:17.323Z,1170.00
2023-12-13T00:49:17.366Z,1168.00
2023-12-13T00:50:17.388Z,1168.00
2023-12-13T00:51:17.460Z,1168.00
2023-12-13T00:52:17.578Z,1167.00
2023-12-13T00:53:17.575Z,1166.00
2023-12-13T00:54:17.631Z,1167.00
2023-12-13T00:55:17.774Z,1166.00
2023-12-13T00:56:17.759Z,1165.00
2023-12-13T00:57:17.815Z,1163.00
2023-12-13T00:58:17.922Z,1161.00
2023-12-13T00:59:17.924Z,1157.00
2023-12-13T01:00:17.994Z,1156.00
2023-12-13T01:01:18.151Z,1157.00
2023-12-13T01:02:18.640Z,1155.00
2023-12-13T01:03:18.194Z,1157.00
2023-12-13T01:04:18.402Z,1157.00
2023-12-13T01:05:18.390Z,1157.00
2023-12-13T01:06:18.387Z,1158.00
2023-12-13T01:07:18.471Z,1158.00
2023-12-13T01:08:18.500Z,1155.00
2023-12-13T01:09:18.595Z,1153.00
2023-12-13T01:10:18.645Z,1154.00
2023-12-13T01:11:18.698Z,1152.00
2023-12-13T01:12:18.746Z,1152.00
2023-12-13T01:13:18.853Z,1154.00
2023-12-13T01:14:18.884Z,1155.00
2023-12-13T01:15:18.930Z,1154.00
2023-12-13T01:16:19.026Z,1156.00
2023-12-13T01:17:19.057Z,1157.00
2023-12-13T01:18:19.189Z,1158.00
2023-12-13T01:19:19.263Z,1157.00
2023-12-13T01:20:19.422Z,1157.00
2023-12-13T01:21:19.315Z,1158.00
2023-12-13T01:22:19.393Z,1159.00
2023-12-13T01:23:19.439Z,1161.00
2023-12-13T01:24:19.522Z,1160.00
2023-12-13T01:25:19.594Z,1160.00
2023-12-13T01:26:19.652Z,1158.00
2023-12-13T01:27:19.700Z,1156.00
2023-12-13T01:28:19.958Z,1159.00
2023-12-13T01:29:19.894Z,1155.00
2023-12-13T01:30:19.919Z,1158.00
2023-12-13T01:31:20.037Z,1160.00
2023-12-13T01:32:20.040Z,1157.00
2023-12-13T01:33:20.145Z,1155.00
2023-12-13T01:34:20.175Z,1154.00
2023-12-13T01:35:20.216Z,1155.00
2023-12-13T01:36:20.269Z,1154.00
2023-12-13T01:37:20.348Z,1150.00
2023-12-13T01:38:20.474Z,1148.00
2023-12-13T01:39:20.519Z,1144.00
2023-12-13T01:40:20.550Z,1145.00
2023-12-13T01:41:20.619Z,1148.00
2023-12-13T01:42:20.652Z,1147.00
2023-12-13T01:43:20.728Z,1148.00
2023-12-13T01:44:20.772Z,1147.00
2023-12-13T01:45:20.837Z,1147.00
2023-12-13T01:46:20.905Z,1143.00
2023-12-13T01:47:20.945Z,1141.00
2023-12-13T01:48:21.147Z,1141.00
2023-12-13T01:49:21.202Z,1144.00
2023-12-13T01:50:21.147Z,1143.00
2023-12-13T01:51:21.199Z,1140.00
2023-12-13T01:52:21.287Z,1142.00
2023-12-13T01:53:21.395Z,1142.00
2023-12-13T01:54:21.392Z,1142.00
2023-12-13T01:55:21.479Z,1144.00
2023-12-13T01:56:21.517Z,1146.00
2023-12-13T01:57:21.635Z,1144.00
2023-12-13T01:58:21.677Z,1146.00
2023-12-13T01:59:21.709Z,1142.00
2023-12-13T02:00:21.775Z,1141.00
2023-12-13T02:01:21.918Z,1141.00
2023-12-13T02:02:21.937Z,1140.00
2023-12-13T02:03:22.015Z,1137.00
2023-12-13T02:04:22.064Z,1134.00
2023-12-13T02:05:22.153Z,1136.00
2023-12-13T02:06:22.168Z,1139.00
2023-12-13T02:07:22.246Z,1138.00
2023-12-13T02:08:22.300Z,1139.00
2023-12-13T02:09:22.364Z,1137.00
2023-12-13T02:10:22.469Z,1139.00
2023-12-13T02:11:24.534Z,1140.00
2023-12-13T02:12:22.543Z,1141.00
2023-12-13T02:13:22.635Z,1141.00
2023-12-13T02:14:22.625Z,1139.00
2023-12-13T02:15:22.686Z,1138.00
2023-12-13T02:16:22.777Z,1134.00
2023-12-13T02:17:22.775Z,1130.00
2023-12-13T02:18:22.892Z,1129.00
2023-12-13T02:19:22.980Z,1127.00
2023-12-13T02:20:22.914Z,1122.00
2023-12-13T02:21:22.968Z,1123.00
2023-12-13T02:22:23.034Z,1122.00
2023-12-13T02:23:23.054Z,1121.00
2023-12-13T02:24:23.101Z,1122.00
2023-12-13T02:25:23.209Z,1121.00
2023-12-13T02:26:23.190Z,1121.00
2023-12-13T02:27:23.239Z,1121.00
2023-12-13T02:28:23.318Z,1122.00
2023-12-13T02:29:23.333Z,1122.00
2023-12-13T02:30:25.055Z,1119.00
2023-12-13T02:31:23.490Z,1119.00
2023-12-13T02:32:23.528Z,1124.00
2023-12-13T02:33:23.611Z,1120.00
2023-12-13T02:34:23.705Z,1119.00
2023-12-13T02:35:23.630Z,1119.00
2023-12-13T02:36:23.664Z,1116.00
2023-12-13T02:37:23.732Z,1112.00
2023-12-13T02:38:23.746Z,1113.00
2023-12-13T02:39:23.884Z,1112.00
2023-12-13T02:40:23.875Z,1110.00
2023-12-13T02:41:23.883Z,1107.00
2023-12-13T02:42:24.003Z,1111.00
2023-12-13T02:43:24.037Z,1115.00
2023-12-13T02:44:24.029Z,1115.00
2023-12-13T02:45:24.081Z,1116.00
2023-12-13T02:46:24.178Z,1112.00
2023-12-13T02:47:24.185Z,1112.00
2023-12-13T02:48:24.380Z,1109.00
2023-12-13T02:49:24.340Z,1108.00
2023-12-13T02:50:24.314Z,1107.00
2023-12-13T02:51:24.365Z,1109.00
2023-12-13T02:52:24.470Z,1111.00
2023-12-13T02:53:24.461Z,1108.00
2023-12-13T02:54:24.497Z,1106.00
2023-12-13T02:55:27.241Z,1106.00
2023-12-13T02:56:24.868Z,1101.00
2023-12-13T02:57:24.883Z,1098.00
2023-12-13T02:58:25.013Z,1099.00
2023-12-13T02:59:24.996Z,1099.00
2023-12-13T03:00:25.070Z,1098.00
2023-12-13T03:01:25.242Z,1097.00
2023-12-13T03:02:25.174Z,1095.00
2023-12-13T03:03:25.281Z,1097.00
2023-12-13T03:04:25.323Z,1096.00
2023-12-13T03:05:25.370Z,1096.00
2023-12-13T03:06:25.391Z,1095.00
2023-12-13T03:07:25.527Z,1094.00
2023-12-13T03:08:25.495Z,1095.00
2023-12-13T03:09:25.544Z,1091.00
2023-12-13T03:10:25.655Z,1091.00
2023-12-13T03:11:25.682Z,1093.00
2023-12-13T03:12:25.724Z,1091.00
2023-12-13T03:13:25.789Z,1090.00
2023-12-13T03:14:25.910Z,1086.00
2023-12-13T03:15:25.956Z,1089.00
2023-12-13T03:16:25.995Z,1091.00
2023-12-13T03:17:25.985Z,1090.00
2023-12-13T03:18:26.157Z,1087.00
2023-12-13T03:19:26.193Z,1084.00
2023-12-13T03:20:26.156Z,1083.00
2023-12-13T03:21:26.243Z,1083.00
2023-12-13T03:22:26.290Z,1084.00
2023-12-13T03:23:26.337Z,1082.00
2023-12-13T03:24:26.409Z,1081.00
2023-12-13T03:25:26.513Z,1080.00
2023-12-13T03:26:26.514Z,1078.00
2023-12-13T03:27:26.573Z,1075.00
2023-12-13T03:28:26.659Z,1073.00
2023-12-13T03:29:26.695Z,1072.00
2023-12-13T03:30:27.207Z,1073.00
2023-12-13T03:31:26.855Z,1073.00
2023-12-13T03:32:26.871Z,1074.00
2023-12-13T03:33:27.010Z,1072.00
2023-12-13T03:34:27.057Z,1071.00
2023-12-13T03:35:27.059Z,1066.00
2023-12-13T03:36:27.102Z,1062.00
2023-12-13T03:37:27.215Z,1063.00
2023-12-13T03:38:27.219Z,1064.00
2023-12-13T03:39:27.291Z,1062.00
2023-12-13T03:40:27.364Z,1060.00
2023-12-13T03:41:27.428Z,1058.00
2023-12-13T03:42:27.456Z,1059.00
2023-12-13T03:43:27.538Z,1062.00
2023-12-13T03:44:27.564Z,1059.00
2023-12-13T03:45:27.682Z,1061.00
2023-12-13T03:46:27.762Z,1060.00
2023-12-13T03:47:28.065Z,1061.00
2023-12-13T03:48:27.932Z,1060.00
2023-12-13T03:49:28.071Z,1061.00
2023-12-13T03:50:27.925Z,1061.00
2023-12-13T03:51:27.980Z,1058.00
2023-12-13T03:52:28.053Z,1053.00
2023-12-13T03:53:28.101Z,1051.00
2023-12-13T03:54:28.169Z,1051.00
2023-12-13T03:55:28.245Z,1047.00
2023-12-13T03:56:28.279Z,1046.00
2023-12-13T03:57:28.360Z,1043.00
2023-12-13T03:58:28.435Z,1043.00
2023-12-13T03:59:28.451Z,1045.00
2023-12-13T04:00:28.611Z,1047.00
2023-12-13T04:01:28.601Z,1048.00
2023-12-13T04:02:28.624Z,1045.00
2023-12-13T04:03:28.725Z,1042.00
2023-12-13T04:04:28.794Z,1044.00
2023-12-13T04:05:28.808Z,1045.00
2023-12-13T04:06:28.893Z,1043.00
2023-12-13T04:07:28.944Z,1042.00
2023-12-13T04:08:28.982Z,1042.00
2023-12-13T04:09:29.041Z,1037.00
2023-12-13T04:10:29.155Z,1031.00
2023-12-13T04:11:29.152Z,1030.00
2023-12-13T04:12:29.250Z,1028.00
2023-12-13T04:13:29.313Z,1030.00
2023-12-13T04:14:29.331Z,1029.00
2023-12-13T04:15:29.395Z,1028.00
2023-12-13T04:16:29.461Z,1029.00
2023-12-13T04:17:30.304Z,1026.00
2023-12-13T04:18:29.620Z,1028.00
2023-12-13T04:19:29.644Z,1029.00
2023-12-13T04:20:29.672Z,1031.00
2023-12-13T04:21:29.721Z,1030.00
2023-12-13T04:22:29.796Z,1027.00
2023-12-13T04:23:29.837Z,1023.00
2023-12-13T04:24:29.877Z,1024.00
2023-12-13T04:25:29.984Z,1026.00
2023-12-13T04:26:30.005Z,1029.00
2023-12-13T04:27:30.171Z,1029.00
2023-12-13T04:28:30.105Z,1028.00
2023-12-13T04:29:30.159Z,1027.00
2023-12-13T04:30:30.252Z,1025.00
2023-12-13T04:31:30.360Z,1024.00
2023-12-13T04:32:30.406Z,1025.00
2023-12-13T04:33:30.480Z,1022.00
2023-12-13T04:34:30.477Z,1022.00
2023-12-13T04:35:30.521Z,1019.00
2023-12-13T04:36:30.560Z,1019.00
2023-12-13T04:37:30.798Z,1020.00
2023-12-13T04:38:30.660Z,1019.00
2023-12-13T04:39:30.776Z,1015.00
2023-12-13T04:40:30.831Z,1012.00
2023-12-13T04:41:30.849Z,1014.00
2023-12-13T04:42:30.888Z,1014.00
2023-12-13T04:43:30.960Z,1013.00
2023-12-13T04:44:30.995Z,1013.00
2023-12-13T04:45:31.056Z,1016.00
2023-12-13T04:46:38.456Z,1027.00
2023-12-13T04:47:38.774Z,1019.00
2023-12-13T04:48:38.643Z,1020.00
2023-12-13T04:49:38.615Z,1016.00
2023-12-13T04:50:38.601Z,1014.00
2023-12-13T04:51:38.638Z,1014.00
2023-12-13T04:52:39.521Z,1014.00
2023-12-13T04:53:38.714Z,1013.00
2023-12-13T04:54:38.766Z,1009.00
2023-12-13T04:55:38.862Z,1009.00
2023-12-13T04:56:38.847Z,1009.00
2023-12-13T04:57:39.486Z,1014.00
2023-12-13T04:58:38.966Z,1015.00
2023-12-13T04:59:38.971Z,1014.00
2023-12-13T05:00:39.059Z,1018.00
2023-12-13T05:01:39.085Z,1017.00
2023-12-13T05:02:39.097Z,1016.00
2023-12-13T05:03:39.208Z,1013.00
2023-12-13T05:04:39.242Z,1014.00
2023-12-13T05:05:39.308Z,1012.00
2023-12-13T05:06:39.306Z,1011.00
2023-12-13T05:07:39.480Z,1013.00
2023-12-13T05:08:39.377Z,1013.00
2023-12-13T05:09:39.429Z,1012.00
2023-12-13T05:10:39.538Z,1011.00
2023-12-13T05:11:39.521Z,1011.00
2023-12-13T05:12:39.579Z,1012.00
2023-12-13T05:13:39.639Z,1013.00
2023-12-13T05:14:39.684Z,1010.00
2023-12-13T05:15:39.700Z,1008.00
2023-12-13T05:16:39.800Z,1008.00
2023-12-13T05:17:39.906Z,1008.00
2023-12-13T05:18:39.869Z,1009.00
2023-12-13T05:19:40.080Z,1012.00
2023-12-13T05:20:39.960Z,1013.00
2023-12-13T05:21:39.996Z,1014.00
2023-12-13T05:22:40.111Z,1014.00
2023-12-13T05:23:40.087Z,1013.00
2023-12-13T05:24:40.157Z,1011.00
2023-12-13T05:25:40.263Z,1009.00
2023-12-13T05:26:40.211Z,1008.00
2023-12-13T05:27:40.253Z,1008.00
2023-12-13T05:28:40.353Z,1003.00
2023-12-13T05:29:40.353Z,1002.00
2023-12-13T05:30:40.423Z,1007.00
2023-12-13T05:31:40.479Z,1008.00
2023-12-13T05:32:40.525Z,1008.00
2023-12-13T05:33:40.554Z,1006.00
2023-12-13T05:34:40.597Z,1011.00
2023-12-13T05:35:40.667Z,1013.00
2023-12-13T05:36:40.651Z,1014.00
2023-12-13T05:37:40.713Z,1013.00
2023-12-13T05:38:40.722Z,1011.00
2023-12-13T05:39:40.760Z,1012.00
2023-12-13T05:40:40.837Z,1012.00
2023-12-13T05:41:41.499Z,1014.00
2023-12-13T05:42:40.887Z,1012.00
2023-12-13T05:43:40.978Z,1011.00
2023-12-13T05:44:40.964Z,1012.00
2023-12-13T05:45:41.016Z,1008.00
2023-12-13T05:46:41.119Z,1007.00
2023-12-13T05:47:41.166Z,1007.00
2023-12-13T05:48:41.217Z,1003.00
2023-12-13T05:49:41.197Z,1005.00
2023-12-13T05:50:41.216Z,1001.00
2023-12-13T05:51:41.260Z,1000.00
2023-12-13T05:52:41.298Z,1003.00
2023-12-13T05:53:41.315Z,1006.00
2023-12-13T05:54:41.364Z,1007.00
2023-12-13T05:55:41.426Z,1008.00
2023-12-13T05:56:41.442Z,1008.00
2023-12-13T05:57:41.494Z,1006.00
2023-12-13T05:58:41.674Z,1006.00
2023-12-13T05:59:41.649Z,1009.00
2023-12-13T06:00:41.647Z,1007.00
2023-12-13T06:01:42.528Z,1010.00
2023-12-13T06:02:54.797Z,1012.00
2023-12-13T06:03:42.793Z,1012.00
2023-12-13T06:04:41.883Z,1011.00
2023-12-13T06:05:42.167Z,1010.00
2023-12-13T06:06:41.925Z,1010.00
2023-12-13T06:07:41.934Z,1012.00
2023-12-13T06:08:41.987Z,1013.00
2023-12-13T06:09:42.035Z,1012.00
2023-12-13T06:10:42.548Z,1012.00
2023-12-13T06:11:42.112Z,1010.00
2023-12-13T06:12:42.165Z,1012.00
2023-12-13T06:13:42.410Z,1013.00
2023-12-13T06:14:42.226Z,1013.00
2023-12-13T06:15:42.279Z,1016.00
2023-12-13T06:16:42.480Z,1015.00
2023-12-13T06:17:42.454Z,1016.00
2023-12-13T06:18:42.440Z,1014.00
2023-12-13T06:19:42.455Z,1013.00
2023-12-13T06:20:42.502Z,1014.00
2023-12-13T06:21:42.537Z,1021.00
2023-12-13T06:22:42.607Z,1023.00
2023-12-13T06:23:42.665Z,1027.00
2023-12-13T06:24:42.648Z,1034.00
2023-12-13T06:25:42.760Z,1082.00
2023-12-13T06:26:42.733Z,1100.00
2023-12-13T06:27:42.778Z,1186.00
2023-12-13T06:28:42.910Z,1219.00
2023-12-13T06:29:43.010Z,1276.00
2023-12-13T06:30:43.080Z,1365.00
2023-12-13T06:31:48.132Z,1372.00
2023-12-13T06:32:43.274Z,1396.00
2023-12-13T06:33:43.358Z,1428.00
2023-12-13T06:34:43.989Z,1506.00
2023-12-13T06:35:43.944Z,1529.00
2023-12-13T06:36:43.323Z,1555.00
2023-12-13T06:37:43.465Z,1594.00
2023-12-13T06:38:43.475Z,1622.00
2023-12-13T06:39:44.470Z,1674.00
2023-12-13T06:40:44.520Z,1696.00
2023-12-13T06:41:43.548Z,1717.00
2023-12-13T06:42:43.542Z,1738.00
2023-12-13T06:43:43.574Z,1776.00
2023-12-13T06:44:43.587Z,1803.00
2023-12-13T06:45:43.618Z,1826.00
2023-12-13T06:46:43.760Z,1878.00
2023-12-13T06:47:43.678Z,1893.00
2023-12-13T06:48:43.795Z,1928.00
2023-12-13T06:49:43.763Z,1963.00
2023-12-13T06:50:43.827Z,2001.00
2023-12-13T06:51:44.554Z,2026.00
2023-12-13T06:52:43.845Z,2054.00
2023-12-13T06:53:43.882Z,2078.00
2023-12-13T06:54:43.866Z,2104.00
2023-12-13T06:55:44.086Z,2148.00
2023-12-13T06:56:44.536Z,2171.00
2023-12-13T06:57:43.934Z,2197.00
2023-12-13T06:58:44.025Z,2225.00
2023-12-13T06:59:43.991Z,2275.00
2023-12-13T07:00:44.566Z,2299.00
2023-12-13T07:01:44.018Z,2319.00
2023-12-13T07:02:44.097Z,2366.00
2023-12-13T07:03:44.071Z,2386.00
2023-12-13T07:04:44.244Z,2411.00
2023-12-13T07:05:44.426Z,2425.00
2023-12-13T07:06:45.127Z,2459.00
2023-12-13T07:07:44.199Z,2489.00
2023-12-13T07:08:44.188Z,2522.00
2023-12-13T07:09:46.086Z,2549.00
2023-12-13T07:10:44.253Z,2573.00
2023-12-13T07:11:44.240Z,2602.00
2023-12-13T07:12:44.310Z,2628.00
2023-12-13T07:13:44.448Z,2667.00
2023-12-13T07:14:46.035Z,2704.00
2023-12-13T07:15:44.321Z,2741.00
2023-12-13T07:16:44.414Z,2758.00
2023-12-13T07:17:44.409Z,2782.00
2023-12-13T07:18:44.391Z,2810.00
2023-12-13T07:19:45.446Z,2847.00
2023-12-13T07:20:44.445Z,2915.00
2023-12-13T07:21:44.426Z,2903.00
2023-12-13T07:22:44.504Z,2894.00
2023-12-13T07:23:44.560Z,2884.00
2023-12-13T07:24:44.507Z,2873.00
2023-12-13T07:25:44.586Z,2855.00
2023-12-13T07:26:46.554Z,2839.00
2023-12-13T07:27:44.568Z,2831.00
2023-12-13T07:28:44.675Z,2823.00
2023-12-13T07:29:44.724Z,2820.00
2023-12-13T07:30:52.466Z,2812.00
2023-12-13T07:31:45.860Z,2805.00
2023-12-13T07:32:44.875Z,2794.00
2023-12-13T07:33:44.890Z,2794.00
2023-12-13T07:34:44.891Z,2790.00
2023-12-13T07:35:44.886Z,2789.00
2023-12-13T07:36:44.932Z,2785.00
2023-12-13T07:37:44.970Z,2786.00
2023-12-13T07:38:44.962Z,2785.00
2023-12-13T07:39:44.991Z,2784.00
2023-12-13T07:40:45.102Z,2780.00
2023-12-13T07:41:45.067Z,2782.00
2023-12-13T07:42:46.970Z,2779.00
2023-12-13T07:43:45.109Z,2775.00
2023-12-13T07:44:45.123Z,2771.00
2023-12-13T07:45:45.158Z,2771.00
2023-12-13T07:46:46.070Z,2766.00
2023-12-13T07:47:53.521Z,2760.00
2023-12-13T07:48:46.400Z,2753.00
2023-12-13T07:49:46.098Z,2748.00
2023-12-13T07:50:45.455Z,2746.00
2023-12-13T07:51:45.333Z,2741.00
2023-12-13T07:52:45.381Z,2737.00
2023-12-13T07:53:46.684Z,2733.00
2023-12-13T07:54:45.432Z,2730.00
2023-12-13T07:55:45.456Z,2725.00
2023-12-13T07:56:45.480Z,2723.00
2023-12-13T07:57:45.499Z,2718.00
2023-12-13T07:58:45.583Z,2719.00
2023-12-13T07:59:45.581Z,2716.00
2023-12-13T08:00:45.636Z,2715.00
2023-12-13T08:01:45.696Z,2710.00
2023-12-13T08:02:47.026Z,2707.00
2023-12-13T08:03:45.744Z,2707.00
2023-12-13T08:04:45.849Z,2703.00
2023-12-13T08:05:45.971Z,2695.00
2023-12-13T08:06:45.988Z,2692.00
2023-12-13T08:07:46.154Z,2691.00
2023-12-13T08:08:46.148Z,2685.00
2023-12-13T08:09:46.498Z,2681.00
2023-12-13T08:10:46.603Z,2677.00
2023-12-13T08:11:46.390Z,2674.00
2023-12-13T08:12:46.503Z,2670.00
2023-12-13T08:13:46.742Z,2664.00
2023-12-13T08:14:46.650Z,2659.00
2023-12-13T08:15:46.744Z,2658.00
2023-12-13T08:16:46.840Z,2658.00
2023-12-13T08:17:47.052Z,2654.00
2023-12-13T08:18:47.117Z,2654.00
2023-12-13T08:19:47.572Z,2653.00
2023-12-13T08:20:48.970Z,2651.00
2023-12-13T08:21:47.282Z,2647.00
2023-12-13T08:22:47.563Z,2637.00
2023-12-13T08:23:47.520Z,2592.00
2023-12-13T08:24:47.552Z,2612.00
2023-12-13T08:25:47.668Z,2187.00
2023-12-13T08:26:47.691Z,1333.00
2023-12-13T08:27:47.773Z,1022.00
2023-12-13T08:28:48.335Z,867.00
2023-12-13T08:29:47.988Z,800.00
2023-12-13T08:30:48.156Z,760.00
2023-12-13T08:31:48.234Z,737.00
2023-12-13T08:32:49.101Z,898.00
2023-12-13T08:33:48.486Z,991.00
2023-12-13T08:34:48.578Z,961.00
2023-12-13T08:35:48.638Z,926.00
2023-12-13T08:36:48.715Z,920.00
2023-12-13T08:37:48.806Z,914.00
2023-12-13T08:38:49.847Z,911.00
2023-12-13T08:39:49.592Z,915.00
2023-12-13T08:40:49.026Z,918.00
2023-12-13T08:41:49.024Z,918.00
2023-12-13T08:42:49.085Z,914.00
2023-12-13T08:43:50.071Z,925.00
2023-12-13T08:44:49.178Z,949.00
2023-12-13T08:45:49.236Z,981.00
2023-12-13T08:46:49.316Z,1010.00
2023-12-13T08:47:49.328Z,1054.00
2023-12-13T08:48:49.422Z,1092.00
2023-12-13T08:49:49.454Z,1107.00
2023-12-13T08:50:50.024Z,1150.00
2023-12-13T08:51:49.502Z,1187.00
2023-12-13T08:52:49.651Z,1211.00
2023-12-13T08:53:49.669Z,1248.00
2023-12-13T08:54:49.743Z,1281.00
2023-12-13T08:55:49.881Z,1315.00
2023-12-13T08:56:49.862Z,1338.00
2023-12-13T08:57:49.924Z,1396.00
2023-12-13T08:58:50.000Z,1441.00
2023-12-13T08:59:56.754Z,1457.00
2023-12-13T09:00:51.225Z,1494.00
2023-12-13T09:01:50.144Z,1231.00
2023-12-13T09:02:51.078Z,872.00
2023-12-13T09:03:50.298Z,774.00
2023-12-13T09:04:50.314Z,698.00
2023-12-13T09:05:50.396Z,707.00
2023-12-13T09:06:50.347Z,878.00
2023-12-13T09:07:50.442Z,984.00
2023-12-13T09:08:52.084Z,983.00
2023-12-13T09:09:51.079Z,987.00
2023-12-13T09:10:50.515Z,1000.00
2023-12-13T09:11:50.516Z,1054.00
2023-12-13T09:12:50.564Z,1077.00
2023-12-13T09:13:50.715Z,1113.00
2023-12-13T09:14:50.695Z,1168.00
2023-12-13T09:15:50.788Z,1225.00
2023-12-13T09:16:50.824Z,1207.00
2023-12-13T09:17:50.912Z,965.00
2023-12-13T09:18:51.004Z,912.00
2023-12-13T09:19:51.204Z,881.00
2023-12-13T09:20:51.170Z,842.00
2023-12-13T09:21:51.196Z,758.00
2023-12-13T09:22:51.356Z,880.00
2023-12-13T09:23:51.391Z,905.00
2023-12-13T09:24:51.557Z,932.00
2023-12-13T09:25:51.598Z,1020.00
2023-12-13T09:26:51.651Z,1100.00
2023-12-13T09:27:51.760Z,1124.00
2023-12-13T09:28:51.942Z,1184.00
2023-12-13T09:29:51.945Z,1214.00
2023-12-13T09:30:52.122Z,1243.00
2023-12-13T09:31:52.087Z,1318.00
2023-12-13T09:32:53.190Z,1338.00
2023-12-13T09:33:52.324Z,1351.00
2023-12-13T09:34:52.257Z,1383.00
2023-12-13T09:35:52.328Z,1432.00
2023-12-13T09:36:52.429Z,1453.00
2023-12-13T09:37:52.562Z,1475.00
2023-12-13T09:38:52.604Z,1503.00
2023-12-13T09:39:59.576Z,1567.00
2023-12-13T09:40:53.759Z,1589.00
2023-12-13T09:41:52.740Z,1621.00
2023-12-13T09:42:52.787Z,1640.00
2023-12-13T09:43:52.832Z,1697.00
2023-12-13T09:44:52.832Z,1718.00
2023-12-13T09:45:52.867Z,1748.00
2023-12-13T09:46:52.939Z,1778.00
2023-12-13T09:47:53.017Z,1805.00
2023-12-13T09:48:52.976Z,1878.00
2023-12-13T09:49:53.041Z,1885.00
2023-12-13T09:50:53.075Z,1906.00
2023-12-13T09:51:52.999Z,1939.00
2023-12-13T09:52:53.071Z,1972.00
2023-12-13T09:53:53.041Z,1996.00
2023-12-13T09:54:53.064Z,2032.00
2023-12-13T09:55:53.172Z,2081.00
2023-12-13T09:56:53.175Z,2095.00
2023-12-13T09:57:53.136Z,2126.00
2023-12-13T09:58:53.233Z,2156.00
2023-12-13T09:59:53.190Z,2183.00
2023-12-13T10:00:53.206Z,2204.00
2023-12-13T10:01:53.327Z,2262.00
2023-12-13T10:02:53.394Z,2298.00
2023-12-13T10:03:53.470Z,2310.00
2023-12-13T10:04:54.600Z,2336.00
2023-12-13T10:05:53.744Z,2384.00
2023-12-13T10:06:54.610Z,2411.00
2023-12-13T10:07:54.826Z,2431.00
2023-12-13T10:08:53.779Z,2453.00
2023-12-13T10:09:54.599Z,2479.00
2023-12-13T10:10:53.908Z,2511.00
2023-12-13T10:11:53.840Z,2545.00
2023-12-13T10:12:53.853Z,2576.00
2023-12-13T10:13:53.896Z,2629.00
2023-12-13T10:14:53.887Z,2655.00
2023-12-13T10:15:53.909Z,2672.00
2023-12-13T10:17:00.833Z,2725.00
2023-12-13T10:17:55.568Z,2758.00
2023-12-13T10:18:53.980Z,2782.00
2023-12-13T10:19:54.085Z,2805.00
2023-12-13T10:20:54.001Z,2823.00
2023-12-13T10:21:54.022Z,2869.00
2023-12-13T10:22:54.132Z,2892.00
2023-12-13T10:23:54.646Z,2899.00
2023-12-13T10:24:54.112Z,2905.00
2023-12-13T10:25:54.157Z,2669.00
2023-12-13T10:26:54.204Z,2124.00
2023-12-13T10:27:54.276Z,2390.00
2023-12-13T10:28:54.362Z,2117.00
2023-12-13T10:29:54.383Z,1847.00
2023-12-13T10:30:54.486Z,1946.00
2023-12-13T10:31:54.484Z,1964.00
2023-12-13T10:32:54.677Z,1992.00
2023-12-13T10:33:54.595Z,2059.00
2023-12-13T10:34:54.582Z,2080.00
2023-12-13T10:35:54.581Z,2101.00
2023-12-13T10:36:54.651Z,2126.00
2023-12-13T10:37:54.754Z,2162.00
2023-12-13T10:38:54.802Z,2200.00
2023-12-13T10:39:55.130Z,2232.00
2023-12-13T10:40:55.022Z,2253.00
2023-12-13T10:41:55.075Z,2287.00
2023-12-13T10:42:55.156Z,2347.00
2023-12-13T10:43:55.270Z,2368.00
2023-12-13T10:44:55.297Z,2392.00
2023-12-13T10:45:55.409Z,2410.00
2023-12-13T10:46:55.472Z,2448.00
2023-12-13T10:47:55.562Z,2491.00
2023-12-13T10:48:55.623Z,2513.00
2023-12-13T10:49:55.833Z,2581.00
2023-12-13T10:50:55.746Z,2596.00
2023-12-13T10:51:55.835Z,2606.00
2023-12-13T10:52:55.933Z,2643.00
2023-12-13T10:53:55.939Z,2670.00
2023-12-13T10:54:56.558Z,2696.00
2023-12-13T10:55:56.649Z,2725.00
2023-12-13T10:56:56.121Z,2754.00
2023-12-13T10:57:56.178Z,2798.00
2023-12-13T10:58:56.283Z,2825.00
2023-12-13T10:59:56.294Z,2892.00
2023-12-13T11:00:56.404Z,2913.00
2023-12-13T11:01:56.490Z,2916.00
2023-12-13T11:02:56.496Z,2918.00
2023-12-13T11:03:56.570Z,2918.00
2023-12-13T11:04:56.673Z,2919.00
2023-12-13T11:05:56.708Z,2918.00
2023-12-13T11:06:56.729Z,2919.00
2023-12-13T11:07:56.812Z,2919.00
2023-12-13T11:08:56.838Z,2913.00
2023-12-13T11:09:56.932Z,2904.00
2023-12-13T11:10:57.006Z,2898.00
2023-12-13T11:11:57.045Z,2889.00
2023-12-13T11:12:57.641Z,2879.00
2023-12-13T11:13:57.202Z,2872.00
2023-12-13T11:14:57.255Z,2869.00
2023-12-13T11:15:57.335Z,2867.00
2023-12-13T11:16:57.457Z,2865.00
2023-12-13T11:17:57.525Z,2865.00
2023-12-13T11:18:57.785Z,2865.00
2023-12-13T11:19:58.579Z,2860.00
2023-12-13T11:20:57.779Z,2854.00
2023-12-13T11:21:57.893Z,2853.00
2023-12-13T11:22:58.045Z,2851.00
2023-12-13T11:23:57.990Z,2845.00
2023-12-13T11:24:58.058Z,2843.00
2023-12-13T11:25:58.237Z,2840.00
2023-12-13T11:26:58.189Z,2837.00
2023-12-13T11:27:59.134Z,2833.00
2023-12-13T11:28:58.338Z,2830.00
2023-12-13T11:29:58.325Z,2822.00
2023-12-13T11:30:58.473Z,2818.00
2023-12-13T11:31:58.457Z,2818.00
2023-12-13T11:32:59.583Z,2813.00
2023-12-13T11:33:58.480Z,2808.00
2023-12-13T11:34:58.560Z,2802.00
2023-12-13T11:35:58.490Z,2803.00
2023-12-13T11:36:59.062Z,2804.00
2023-12-13T11:37:58.566Z,2806.00
2023-12-13T11:38:58.555Z,2809.00
2023-12-13T11:39:58.582Z,2807.00
2023-12-13T11:40:58.668Z,2806.00
2023-12-13T11:41:58.649Z,2802.00
2023-12-13T11:42:58.671Z,2797.00
2023-12-13T11:43:58.769Z,2790.00
2023-12-13T11:44:58.772Z,2787.00
2023-12-13T11:45:59.564Z,2789.00
2023-12-13T11:46:58.916Z,2784.00
2023-12-13T11:47:58.843Z,2780.00
2023-12-13T11:48:58.831Z,2777.00
2023-12-13T11:49:58.852Z,2772.00
2023-12-13T11:50:58.880Z,2767.00
2023-12-13T11:51:58.920Z,2762.00
2023-12-13T11:52:58.972Z,2759.00
2023-12-13T11:53:59.648Z,2752.00
2023-12-13T11:54:58.978Z,2744.00
2023-12-13T11:55:59.057Z,2741.00
2023-12-13T11:56:59.034Z,2737.00
2023-12-13T11:57:59.679Z,2737.00
2023-12-13T11:58:59.221Z,2739.00
2023-12-13T11:59:59.093Z,2733.00
2023-12-13T12:00:59.197Z,2737.00
2023-12-13T12:01:59.172Z,2735.00
2023-12-13T12:02:59.173Z,2730.00
2023-12-13T12:03:59.307Z,2727.00
2023-12-13T12:04:59.340Z,2719.00
2023-12-13T12:05:59.380Z,2719.00
2023-12-13T12:06:59.364Z,2723.00